createdAt,value
2019-02-28T00:01:50.001Z,14.00
2019-02-28T00:04:20.553Z,13.83
2019-02-28T00:06:51.266Z,13.70
2019-02-28T00:09:21.347Z,11.50
2019-02-28T00:11:52.029Z,16.13
2019-02-28T00:14:22.105Z,9.97
2019-02-28T00:16:52.152Z,12.30
2019-02-28T00:19:24.600Z,13.17
2019-02-28T00:21:55.191Z,13.10
2019-02-28T00:24:27.131Z,11.20
2019-02-28T00:26:57.737Z,9.43
2019-02-28T00:29:28.089Z,11.03
2019-02-28T00:31:58.253Z,12.63
2019-02-28T00:34:28.342Z,13.07
2019-02-28T00:36:58.873Z,10.50
2019-02-28T00:39:31.403Z,17.23
2019-02-28T00:42:01.748Z,10.40
2019-02-28T00:44:31.820Z,14.53
2019-02-28T00:47:01.965Z,10.00
2019-02-28T00:49:32.335Z,12.30
2019-02-28T00:52:02.712Z,12.63
2019-02-28T00:54:33.236Z,12.73
2019-02-28T00:57:03.272Z,12.53
2019-02-28T00:59:33.487Z,15.07
2019-02-28T01:02:03.857Z,14.93
2019-02-28T01:04:33.924Z,12.03
2019-02-28T01:07:04.089Z,15.73
2019-02-28T01:09:34.420Z,15.20
2019-02-28T01:12:05.256Z,11.37
2019-02-28T01:14:35.818Z,12.97
2019-02-28T01:17:06.744Z,12.93
2019-02-28T01:19:36.819Z,12.70
2019-02-28T01:22:06.855Z,12.17
2019-02-28T01:24:37.144Z,12.53
2019-02-28T01:27:07.412Z,12.87
2019-02-28T01:29:38.143Z,15.53
2019-02-28T01:32:08.265Z,13.83
2019-02-28T01:34:38.624Z,16.40
2019-02-28T01:37:09.221Z,16.63
2019-02-28T01:39:39.304Z,15.57
2019-02-28T01:42:09.404Z,16.67
2019-02-28T01:44:39.680Z,14.20
2019-02-28T01:47:09.951Z,15.13
2019-02-28T01:49:40.636Z,18.23
2019-02-28T01:52:10.822Z,13.97
2019-02-28T01:54:41.697Z,12.07
2019-02-28T01:57:12.293Z,13.63
2019-02-28T01:59:43.616Z,17.53
2019-02-28T02:02:13.876Z,17.17
2019-02-28T02:04:45.761Z,13.57
2019-02-28T02:07:16.045Z,12.77
2019-02-28T02:09:46.988Z,15.50
2019-02-28T02:12:18.388Z,13.77
2019-02-28T02:14:49.104Z,11.70
2019-02-28T02:17:19.151Z,11.70
2019-02-28T02:19:52.125Z,13.23
2019-02-28T02:22:21.502Z,10.37
2019-02-28T02:24:51.576Z,13.30
2019-02-28T02:27:21.609Z,12.00
2019-02-28T02:29:51.755Z,11.97
2019-02-28T02:32:22.242Z,10.13
2019-02-28T02:34:52.537Z,10.77
2019-02-28T02:37:26.332Z,9.53
2019-02-28T02:39:54.906Z,15.37
2019-02-28T02:42:24.999Z,14.10
2019-02-28T02:44:55.785Z,12.43
2019-02-28T02:47:31.347Z,15.33
2019-02-28T02:49:58.251Z,9.43
2019-02-28T02:52:30.375Z,10.90
2019-02-28T02:55:01.159Z,15.90
2019-02-28T02:57:31.186Z,11.83
2019-02-28T03:00:01.602Z,15.87
2019-02-28T03:02:33.275Z,10.20
2019-02-28T03:05:04.374Z,11.03
2019-02-28T03:07:34.962Z,12.70
2019-02-28T03:10:05.465Z,11.60
2019-02-28T03:12:36.190Z,12.80
2019-02-28T03:15:06.681Z,9.30
2019-02-28T03:17:37.358Z,15.47
2019-02-28T03:20:08.886Z,12.65
2019-02-28T03:22:39.325Z,10.97
2019-02-28T03:25:10.495Z,12.43
2019-02-28T03:27:40.532Z,12.47
2019-02-28T03:30:26.039Z,15.93
2019-02-28T03:32:45.576Z,14.27
2019-02-28T03:35:16.303Z,14.70
2019-02-28T03:37:46.555Z,12.77
2019-02-28T03:40:17.693Z,13.90
2019-02-28T03:42:48.091Z,12.33
2019-02-28T03:45:18.730Z,14.10
2019-02-28T03:47:48.809Z,14.43
2019-02-28T03:50:21.897Z,15.57
2019-02-28T03:52:50.692Z,16.80
2019-02-28T03:55:21.017Z,14.30
2019-02-28T03:57:51.662Z,12.33
2019-02-28T04:00:21.809Z,14.20
2019-02-28T04:02:56.649Z,11.63
2019-02-28T04:05:28.105Z,17.97
2019-02-28T04:07:55.693Z,12.47
2019-02-28T04:10:25.738Z,14.13
2019-02-28T04:12:56.002Z,11.30
2019-02-28T04:15:27.421Z,12.67
2019-02-28T04:17:57.691Z,15.30
2019-02-28T04:20:27.889Z,12.80
2019-02-28T04:22:59.843Z,13.70
2019-02-28T04:25:29.977Z,14.90
2019-02-28T04:28:00.943Z,18.80
2019-02-28T04:30:34.300Z,15.07
2019-02-28T04:33:04.317Z,13.73
2019-02-28T04:35:34.397Z,12.80
2019-02-28T04:38:04.424Z,18.00
2019-02-28T04:40:34.780Z,15.10
2019-02-28T04:43:07.286Z,13.37
2019-02-28T04:45:37.015Z,15.33
2019-02-28T04:48:07.399Z,14.67
2019-02-28T04:50:37.783Z,13.70
2019-02-28T04:53:08.103Z,20.47
2019-02-28T04:55:38.183Z,16.70
2019-02-28T04:58:08.545Z,14.80
2019-02-28T05:00:38.941Z,16.40
2019-02-28T05:03:09.045Z,15.87
2019-02-28T05:05:39.424Z,14.87
2019-02-28T05:08:09.525Z,18.53
2019-02-28T05:10:40.636Z,24.20
2019-02-28T05:13:14.140Z,15.17
2019-02-28T05:15:43.488Z,14.30
2019-02-28T05:18:14.548Z,22.40
2019-02-28T05:20:45.911Z,17.63
2019-02-28T05:23:16.464Z,19.30
2019-02-28T05:25:49.081Z,19.80
2019-02-28T05:28:18.934Z,23.23
2019-02-28T05:30:50.175Z,18.67
2019-02-28T05:33:22.103Z,24.03
2019-02-28T05:35:52.279Z,17.97
2019-02-28T05:38:22.575Z,18.63
2019-02-28T05:40:55.435Z,18.37
2019-02-28T05:43:25.229Z,20.23
2019-02-28T05:45:55.669Z,18.50
2019-02-28T05:48:25.784Z,18.87
2019-02-28T05:50:56.620Z,16.03
2019-02-28T05:53:26.703Z,20.00
2019-02-28T05:55:59.744Z,18.67
2019-02-28T05:58:28.863Z,18.17
2019-02-28T06:00:59.011Z,20.80
2019-02-28T06:03:30.390Z,25.40
2019-02-28T06:06:00.536Z,23.63
2019-02-28T06:08:31.349Z,23.30
2019-02-28T06:11:01.672Z,37.70
2019-02-28T06:13:31.732Z,21.90
2019-02-28T06:16:01.818Z,28.97
2019-02-28T06:18:33.445Z,22.27
2019-02-28T06:21:03.992Z,24.33
2019-02-28T06:23:34.037Z,26.70
2019-02-28T06:26:04.546Z,26.33
2019-02-28T06:28:34.589Z,30.37
2019-02-28T06:31:05.288Z,28.03
2019-02-28T06:33:35.656Z,29.67
2019-02-28T06:36:05.740Z,27.60
2019-02-28T06:38:35.769Z,23.43
2019-02-28T06:41:07.594Z,28.17
2019-02-28T06:43:38.246Z,28.33
2019-02-28T06:46:09.381Z,27.93
2019-02-28T06:48:40.724Z,31.00
2019-02-28T06:51:10.817Z,30.60
2019-02-28T06:53:42.096Z,32.77
2019-02-28T06:56:12.507Z,33.07
2019-02-28T06:58:42.856Z,41.37
2019-02-28T07:01:12.945Z,32.13
2019-02-28T07:03:43.276Z,35.37
2019-02-28T07:06:13.572Z,35.70
2019-02-28T07:08:43.990Z,30.97
2019-02-28T07:11:14.013Z,35.53
2019-02-28T07:13:44.336Z,34.00
2019-02-28T07:16:14.777Z,33.17
2019-02-28T07:18:44.952Z,39.30
2019-02-28T07:21:15.463Z,39.20
2019-02-28T07:23:45.536Z,41.17
2019-02-28T07:26:18.701Z,36.03
2019-02-28T07:28:47.815Z,37.03
2019-02-28T07:31:18.426Z,44.77
2019-02-28T07:33:48.750Z,36.47
2019-02-28T07:36:18.792Z,38.23
2019-02-28T07:38:48.892Z,37.10
2019-02-28T07:41:20.339Z,46.43
2019-02-28T07:43:50.973Z,37.20
2019-02-28T07:46:22.485Z,44.60
2019-02-28T07:48:52.764Z,41.33
2019-02-28T07:51:26.098Z,51.97
2019-02-28T07:53:55.357Z,42.57
2019-02-28T07:56:25.447Z,43.50
2019-02-28T07:58:55.859Z,45.20
2019-02-28T08:01:27.737Z,41.87
2019-02-28T08:03:57.692Z,40.30
2019-02-28T08:06:27.780Z,48.37
2019-02-28T08:08:57.893Z,46.60
2019-02-28T08:11:29.773Z,47.90
2019-02-28T08:14:00.384Z,43.80
2019-02-28T08:16:33.883Z,54.23
2019-02-28T08:19:02.486Z,53.83
2019-02-28T08:21:32.858Z,42.37
2019-02-28T08:24:05.396Z,40.80
2019-02-28T08:26:34.680Z,47.17
2019-02-28T08:29:07.816Z,58.10
2019-02-28T08:31:37.375Z,45.60
2019-02-28T08:34:07.707Z,47.67
2019-02-28T08:36:37.811Z,44.20
2019-02-28T08:39:16.169Z,42.17
2019-02-28T08:41:46.530Z,57.13
2019-02-28T08:44:22.465Z,50.83
2019-02-28T08:46:48.852Z,46.70
2019-02-28T08:49:19.148Z,50.53
2019-02-28T08:51:49.219Z,45.90
2019-02-28T08:54:19.257Z,46.60
2019-02-28T08:56:50.624Z,41.30
2019-02-28T08:59:22.714Z,47.40
2019-02-28T09:01:52.909Z,45.37
2019-02-28T09:04:22.948Z,43.53
2019-02-28T09:06:53.490Z,45.60
2019-02-28T09:09:23.777Z,50.00
2019-02-28T09:11:57.921Z,47.20
2019-02-28T09:14:25.831Z,46.17
2019-02-28T09:16:58.501Z,45.37
2019-02-28T09:19:28.791Z,46.33
2019-02-28T09:21:58.950Z,45.97
2019-02-28T09:24:29.227Z,52.23
2019-02-28T09:27:01.323Z,45.20
2019-02-28T09:29:31.947Z,45.10
2019-02-28T09:32:01.998Z,49.30
2019-02-28T09:34:32.080Z,50.90
2019-02-28T09:37:02.621Z,40.60
2019-02-28T09:39:33.137Z,53.07
2019-02-28T09:42:03.472Z,39.47
2019-02-28T09:44:34.472Z,43.37
2019-02-28T09:47:05.105Z,47.67
2019-02-28T09:49:36.104Z,45.47
2019-02-28T09:52:07.229Z,44.23
2019-02-28T09:54:37.408Z,53.03
2019-02-28T09:57:07.497Z,42.33
2019-02-28T09:59:38.647Z,44.17
2019-02-28T10:02:09.616Z,46.87
2019-02-28T10:04:40.057Z,46.37
2019-02-28T10:07:10.678Z,49.77
2019-02-28T10:09:44.265Z,49.03
2019-02-28T10:12:14.399Z,53.17
2019-02-28T10:14:44.440Z,45.07
2019-02-28T10:17:16.049Z,51.80
2019-02-28T10:19:51.961Z,39.73
2019-02-28T10:22:18.209Z,45.80
2019-02-28T10:24:48.813Z,40.67
2019-02-28T10:27:19.136Z,42.13
2019-02-28T10:29:49.261Z,42.20
2019-02-28T10:32:20.408Z,54.30
2019-02-28T10:34:50.739Z,45.40
2019-02-28T10:37:22.855Z,42.67
2019-02-28T10:39:53.112Z,51.87
2019-02-28T10:42:23.209Z,42.50
2019-02-28T10:44:53.297Z,47.97
2019-02-28T10:47:28.129Z,42.60
2019-02-28T10:49:58.276Z,42.27
2019-02-28T10:52:30.558Z,42.20
2019-02-28T10:54:59.976Z,42.47
2019-02-28T10:57:30.521Z,42.90
2019-02-28T11:00:00.885Z,43.30
2019-02-28T11:02:31.824Z,50.63
2019-02-28T11:05:02.089Z,42.43
2019-02-28T11:07:37.833Z,41.83
2019-02-28T11:10:06.519Z,32.53
2019-02-28T11:12:38.632Z,41.60
2019-02-28T11:15:10.410Z,42.37
2019-02-28T11:17:41.944Z,42.73
2019-02-28T11:20:21.886Z,39.00
2019-02-28T11:22:45.976Z,36.30
2019-02-28T11:25:17.323Z,43.20
2019-02-28T11:27:47.815Z,51.90
2019-02-28T11:30:19.256Z,45.20
2019-02-28T11:32:49.849Z,46.17
2019-02-28T11:35:23.211Z,38.10
2019-02-28T11:37:52.668Z,39.87
2019-02-28T11:40:24.341Z,43.63
2019-02-28T11:42:54.528Z,44.30
2019-02-28T11:45:25.701Z,41.80
2019-02-28T11:47:57.159Z,51.60
2019-02-28T11:50:27.263Z,45.07
2019-02-28T11:53:03.306Z,41.17
2019-02-28T11:55:29.567Z,45.37
2019-02-28T11:58:00.079Z,47.60
2019-02-28T12:00:32.566Z,50.13
2019-02-28T12:03:02.862Z,42.73
2019-02-28T12:05:32.951Z,47.53
2019-02-28T12:08:09.271Z,43.97
2019-02-28T12:10:35.704Z,47.30
2019-02-28T12:13:06.025Z,43.40
2019-02-28T12:15:37.958Z,41.53
2019-02-28T12:18:09.022Z,48.07
2019-02-28T12:20:39.065Z,40.57
2019-02-28T12:23:09.765Z,49.87
2019-02-28T12:25:42.683Z,42.57
2019-02-28T12:28:12.185Z,41.30
2019-02-28T12:30:42.404Z,47.47
2019-02-28T12:33:15.435Z,45.87
2019-02-28T12:35:44.684Z,41.10
2019-02-28T12:38:15.516Z,42.90
2019-02-28T12:40:47.204Z,46.57
2019-02-28T12:43:17.375Z,46.77
2019-02-28T12:45:47.692Z,45.33
2019-02-28T12:48:18.278Z,46.97
2019-02-28T12:50:48.372Z,41.07
2019-02-28T12:53:24.264Z,45.67
2019-02-28T12:55:50.842Z,46.17
2019-02-28T12:58:21.208Z,43.87
2019-02-28T13:00:51.830Z,48.70
2019-02-28T13:03:22.541Z,43.50
2019-02-28T13:05:52.700Z,40.40
2019-02-28T13:08:24.041Z,38.37
2019-02-28T13:10:54.395Z,40.07
2019-02-28T13:13:27.438Z,42.07
2019-02-28T13:15:56.645Z,47.23
2019-02-28T13:18:26.766Z,44.93
2019-02-28T13:20:57.284Z,40.30
2019-02-28T13:23:27.337Z,42.90
2019-02-28T13:26:00.008Z,43.77
2019-02-28T13:28:29.419Z,38.77
2019-02-28T13:30:59.949Z,34.97
2019-02-28T13:33:30.400Z,44.23
2019-02-28T13:36:01.160Z,41.30
2019-02-28T13:38:31.208Z,48.60
2019-02-28T13:41:01.820Z,43.83
2019-02-28T13:43:32.416Z,46.70
2019-02-28T13:46:02.505Z,48.13
2019-02-28T13:48:33.749Z,40.40
2019-02-28T13:51:08.448Z,45.17
2019-02-28T13:53:38.229Z,47.40
2019-02-28T13:56:08.413Z,46.70
2019-02-28T13:58:38.773Z,45.13
2019-02-28T14:01:09.429Z,44.83
2019-02-28T14:03:42.294Z,51.50
2019-02-28T14:06:18.914Z,44.10
2019-02-28T14:08:46.006Z,46.60
2019-02-28T14:11:17.391Z,48.93
2019-02-28T14:13:47.489Z,51.50
2019-02-28T14:16:17.761Z,52.20
2019-02-28T14:18:48.192Z,48.53
2019-02-28T14:21:18.223Z,51.83
2019-02-28T14:23:48.327Z,49.70
2019-02-28T14:26:19.709Z,46.80
2019-02-28T14:28:51.240Z,47.47
2019-02-28T14:31:23.416Z,47.80
2019-02-28T14:33:54.491Z,52.23
2019-02-28T14:36:25.773Z,46.60
2019-02-28T14:38:57.772Z,51.60
2019-02-28T14:41:30.888Z,42.63
2019-02-28T14:43:59.614Z,49.37
2019-02-28T14:46:29.643Z,52.60
2019-02-28T14:48:59.934Z,51.30
2019-02-28T14:51:30.250Z,41.23
2019-02-28T14:54:00.753Z,50.03
2019-02-28T14:56:31.216Z,49.80
2019-02-28T14:59:01.540Z,59.13
2019-02-28T15:01:31.893Z,51.33
2019-02-28T15:04:02.696Z,51.23
2019-02-28T15:06:33.213Z,49.17
2019-02-28T15:09:06.249Z,52.47
2019-02-28T15:11:38.198Z,49.77
2019-02-28T15:14:09.551Z,46.23
2019-02-28T15:16:40.296Z,52.63
2019-02-28T15:19:11.531Z,49.10
2019-02-28T15:21:42.699Z,54.13
2019-02-28T15:24:13.753Z,54.30
2019-02-28T15:26:45.404Z,44.07
2019-02-28T15:29:15.725Z,52.37
2019-02-28T15:31:46.006Z,52.20
2019-02-28T15:34:16.088Z,54.97
2019-02-28T15:36:46.221Z,51.07
2019-02-28T15:39:17.370Z,54.10
2019-02-28T15:41:48.680Z,46.33
2019-02-28T15:44:18.891Z,45.83
2019-02-28T15:46:48.912Z,52.23
2019-02-28T15:49:19.492Z,47.53
2019-02-28T15:51:49.765Z,48.80
2019-02-28T15:54:21.654Z,47.53
2019-02-28T15:56:51.861Z,44.57
2019-02-28T15:59:23.705Z,40.80
2019-02-28T16:01:53.963Z,49.50
2019-02-28T16:04:26.144Z,35.90
2019-02-28T16:06:58.115Z,49.60
2019-02-28T16:09:28.412Z,47.03
2019-02-28T16:11:58.829Z,49.47
2019-02-28T16:14:31.452Z,46.20
2019-02-28T16:17:03.372Z,51.40
2019-02-28T16:19:32.780Z,46.20
2019-02-28T16:22:03.807Z,48.60
2019-02-28T16:24:36.777Z,52.20
2019-02-28T16:27:06.852Z,50.23
2019-02-28T16:29:36.957Z,49.70
2019-02-28T16:32:07.780Z,51.17
2019-02-28T16:34:38.847Z,43.27
2019-02-28T16:37:09.793Z,58.17
2019-02-28T16:39:39.880Z,50.13
2019-02-28T16:42:11.554Z,49.60
2019-02-28T16:44:42.181Z,46.83
2019-02-28T16:47:12.284Z,54.90
2019-02-28T16:49:44.461Z,52.97
2019-02-28T16:52:14.858Z,47.17
2019-02-28T16:54:45.125Z,48.73
2019-02-28T16:57:15.233Z,51.07
2019-02-28T16:59:45.632Z,53.60
2019-02-28T17:02:15.926Z,52.60
2019-02-28T17:04:48.647Z,54.03
2019-02-28T17:07:19.346Z,46.90
2019-02-28T17:09:50.789Z,52.87
2019-02-28T17:12:35.096Z,60.00
2019-02-28T17:15:11.197Z,58.27
2019-02-28T17:17:55.808Z,52.10
2019-02-28T17:20:26.113Z,51.93
2019-02-28T17:22:58.643Z,55.83
2019-02-28T17:25:29.171Z,54.30
2019-02-28T17:28:18.384Z,53.43
2019-02-28T17:31:22.533Z,62.37
2019-02-28T17:33:53.602Z,56.13
2019-02-28T17:36:23.732Z,55.03
2019-02-28T17:38:54.442Z,69.90
2019-02-28T17:41:24.495Z,59.27
2019-02-28T17:44:18.601Z,48.33
2019-02-28T17:46:53.229Z,56.17
2019-02-28T17:49:56.388Z,58.07
2019-02-28T17:52:33.690Z,73.37
2019-02-28T17:55:37.869Z,55.50
2019-02-28T17:58:28.291Z,54.33
2019-02-28T18:01:28.919Z,54.27
2019-02-28T18:04:16.913Z,57.30
2019-02-28T18:06:56.564Z,64.30
2019-02-28T18:10:14.668Z,64.70
2019-02-28T18:13:07.558Z,53.77
2019-02-28T18:15:47.033Z,52.80
2019-02-28T18:18:41.743Z,53.97
2019-02-28T18:21:51.029Z,59.53
2019-02-28T18:25:18.090Z,59.47
2019-02-28T18:28:22.580Z,58.83
2019-02-28T18:31:12.224Z,54.13
2019-02-28T18:34:02.752Z,47.53
2019-02-28T18:36:32.864Z,60.23
2019-02-28T18:39:08.022Z,63.03
2019-02-28T18:41:38.985Z,55.17
2019-02-28T18:44:10.017Z,52.33
2019-02-28T18:46:40.445Z,62.70
2019-02-28T18:49:10.518Z,55.60
2019-02-28T18:51:41.281Z,53.03
2019-02-28T18:54:11.304Z,57.63
2019-02-28T18:56:41.619Z,57.20
2019-02-28T18:59:11.905Z,57.17
2019-02-28T19:01:42.000Z,67.30
2019-02-28T19:04:12.820Z,68.50
2019-02-28T19:06:43.259Z,51.40
2019-02-28T19:09:22.659Z,55.10
2019-02-28T19:11:52.885Z,51.90
2019-02-28T19:14:22.916Z,70.33
2019-02-28T19:16:52.988Z,53.07
2019-02-28T19:19:23.069Z,60.50
2019-02-28T19:21:53.520Z,60.70
2019-02-28T19:24:23.628Z,66.43
2019-02-28T19:26:54.682Z,74.40
2019-02-28T19:29:24.728Z,62.03
2019-02-28T19:31:55.052Z,64.63
2019-02-28T19:34:25.088Z,56.30
2019-02-28T19:36:55.189Z,61.03
2019-02-28T19:39:25.481Z,52.57
2019-02-28T19:41:56.147Z,55.63
2019-02-28T19:44:27.454Z,58.23
2019-02-28T19:46:57.689Z,64.70
2019-02-28T19:49:28.248Z,55.13
2019-02-28T19:51:58.361Z,56.70
2019-02-28T19:54:28.523Z,54.57
2019-02-28T19:56:58.608Z,56.47
2019-02-28T19:59:28.864Z,53.77
2019-02-28T20:01:59.171Z,65.83
2019-02-28T20:04:29.424Z,65.23
2019-02-28T20:06:59.768Z,65.70
2019-02-28T20:09:30.284Z,59.83
2019-02-28T20:12:00.309Z,54.77
2019-02-28T20:14:30.757Z,53.90
2019-02-28T20:17:01.217Z,54.47
2019-02-28T20:19:31.593Z,62.17
2019-02-28T20:22:01.624Z,66.90
2019-02-28T20:24:31.821Z,62.40
2019-02-28T20:27:02.304Z,52.03
2019-02-28T20:29:33.001Z,53.50
2019-02-28T20:32:03.533Z,54.60
2019-02-28T20:34:33.572Z,61.07
2019-02-28T20:37:03.965Z,55.70
2019-02-28T20:39:34.422Z,62.47
2019-02-28T20:42:04.656Z,57.70
2019-02-28T20:44:35.776Z,58.60
2019-02-28T20:47:05.925Z,50.73
2019-02-28T20:49:36.297Z,54.07
2019-02-28T20:52:06.376Z,54.67
2019-02-28T20:54:36.400Z,54.93
2019-02-28T20:57:07.867Z,59.93
2019-02-28T20:59:37.924Z,67.87
2019-02-28T21:02:08.089Z,52.13
2019-02-28T21:04:38.112Z,60.43
2019-02-28T21:07:08.517Z,67.17
2019-02-28T21:09:44.923Z,60.97
2019-02-28T21:12:11.317Z,55.93
2019-02-28T21:14:41.423Z,53.73
2019-02-28T21:17:11.893Z,65.50
2019-02-28T21:19:42.255Z,58.07
2019-02-28T21:22:12.576Z,64.17
2019-02-28T21:24:42.666Z,61.87
2019-02-28T21:27:13.656Z,59.27
2019-02-28T21:29:43.921Z,58.13
2019-02-28T21:32:14.510Z,60.20
2019-02-28T21:34:45.112Z,62.07
2019-02-28T21:37:15.270Z,55.83
2019-02-28T21:39:45.353Z,69.23
2019-02-28T21:42:17.060Z,56.50
2019-02-28T21:44:47.455Z,61.33
2019-02-28T21:47:17.840Z,56.63
2019-02-28T21:49:48.405Z,58.83
2019-02-28T21:52:18.766Z,67.67
2019-02-28T21:54:49.397Z,66.90
2019-02-28T21:57:19.726Z,68.77
2019-02-28T21:59:49.988Z,65.77
2019-02-28T22:02:20.108Z,61.23
2019-02-28T22:04:50.235Z,70.07
2019-02-28T22:07:20.602Z,56.53
2019-02-28T22:09:50.704Z,54.63
2019-02-28T22:12:21.191Z,61.30
2019-02-28T22:14:51.883Z,58.87
2019-02-28T22:17:22.188Z,59.00
2019-02-28T22:19:52.469Z,71.30
2019-02-28T22:22:22.800Z,57.97
2019-02-28T22:24:55.216Z,55.50
2019-02-28T22:27:30.357Z,60.67
2019-02-28T22:30:04.944Z,53.60
2019-02-28T22:32:42.968Z,57.47
2019-02-28T22:35:44.865Z,67.10
2019-02-28T22:38:17.011Z,61.43
2019-02-28T22:40:47.664Z,56.33
2019-02-28T22:43:17.707Z,65.03
2019-02-28T22:45:48.184Z,59.17
2019-02-28T22:48:18.343Z,66.53
2019-02-28T22:50:49.096Z,73.87
2019-02-28T22:53:19.200Z,75.33
2019-02-28T22:55:49.235Z,66.00
2019-02-28T22:58:19.808Z,70.37
2019-02-28T23:01:04.855Z,67.70
2019-02-28T23:03:36.944Z,64.13
2019-02-28T23:06:07.500Z,56.83
2019-02-28T23:08:37.576Z,61.43
2019-02-28T23:11:07.978Z,60.93
2019-02-28T23:13:38.080Z,62.73
2019-02-28T23:16:08.520Z,55.70
2019-02-28T23:18:38.770Z,59.87
2019-02-28T23:21:08.808Z,53.17
2019-02-28T23:23:38.960Z,53.23
2019-02-28T23:26:14.733Z,58.50
2019-02-28T23:28:58.526Z,55.20
2019-02-28T23:32:23.673Z,54.83
2019-02-28T23:34:54.929Z,55.63
2019-02-28T23:37:25.192Z,63.57
2019-02-28T23:39:55.493Z,56.27
2019-02-28T23:42:25.969Z,54.77
2019-02-28T23:44:57.928Z,56.27
2019-02-28T23:47:28.344Z,55.60
2019-02-28T23:49:58.364Z,50.13
2019-02-28T23:52:28.686Z,59.07
2019-02-28T23:54:59.184Z,52.23
2019-02-28T23:57:29.221Z,52.97
2019-02-28T23:59:59.289Z,59.50
